GAF312 ETNW-EDDV
Flight info
| Callsign | GAF312 |
|---|---|
| Flight time | N/A |
| Altitude | 3000 |
| Route | NIE DCT NIEXRNP/08 |
| Aircraft | A20N/M-SDE2E3FGHIRWXY/LB1 |
Departure
| Time | 2026-04-11 19:28 |
|---|---|
| Airport | Wunstorf Air Base (ETNW) |
Arrival
| Time | N/A |
|---|---|
| Airport | Hannover Airport (EDDV) |
| Time | Latitude | Longitude | Altitude | Speed | Heading |
|---|---|---|---|---|---|
| 2026-04-11 19:28 | 52.46060 | 9.57142 | 1169 ft | 192 kts | 102° |
| 2026-04-11 19:28 | 52.45890 | 9.59339 | 1178 ft | 200 kts | 102° |
| 2026-04-11 19:28 | 52.45714 | 9.61713 | 971 ft | 210 kts | 98° |
| 2026-04-11 19:28 | 52.45608 | 9.63962 | 697 ft | 183 kts | 96° |
| 2026-04-11 19:29 | 52.45551 | 9.65760 | 458 ft | 149 kts | 94° |
| 2026-04-11 19:29 | 52.45508 | 9.67308 | 266 ft | 125 kts | 95° |
| 2026-04-11 19:29 | 52.45477 | 9.68757 | 640 ft | 142 kts | 95° |
| 2026-04-11 19:29 | 52.45423 | 9.70660 | 835 ft | 188 kts | 99° |
| 2026-04-11 19:30 | 52.45309 | 9.72948 | 595 ft | 224 kts | 94° |
| 2026-04-11 19:30 | 52.45319 | 9.75334 | 1147 ft | 199 kts | 94° |
| 2026-04-11 19:30 | 52.45218 | 9.77565 | 1047 ft | 195 kts | 98° |
| 2026-04-11 19:30 | 52.45019 | 9.79679 | 1451 ft | 178 kts | 130° |
| 2026-04-11 19:31 | 52.43991 | 9.80876 | 1129 ft | 199 kts | 173° |
| 2026-04-11 19:31 | 52.42703 | 9.80017 | 1612 ft | 228 kts | 211° |
| 2026-04-11 19:31 | 52.41917 | 9.77311 | 1349 ft | 295 kts | 262° |
| 2026-04-11 19:31 | 52.42197 | 9.74254 | 1415 ft | 254 kts | 277° |
| 2026-04-11 19:32 | 52.42564 | 9.71532 | 1200 ft | 230 kts | 279° |
| 2026-04-11 19:32 | 52.42744 | 9.69041 | 883 ft | 211 kts | 262° |
| 2026-04-11 19:32 | 52.42640 | 9.66823 | 1351 ft | 198 kts | 256° |
| 2026-04-11 19:32 | 52.42432 | 9.64532 | 2061 ft | 227 kts | 251° |
| 2026-04-11 19:33 | 52.42048 | 9.61670 | 1867 ft | 283 kts | 250° |
| 2026-04-11 19:33 | 52.41714 | 9.58281 | 1653 ft | 310 kts | 262° |
| 2026-04-11 19:33 | 52.41711 | 9.54997 | 1563 ft | 269 kts | 264° |
| 2026-04-11 19:33 | 52.41523 | 9.52172 | 1421 ft | 232 kts | 248° |
| 2026-04-11 19:34 | 52.40924 | 9.49937 | 1303 ft | 199 kts | 226° |
| 2026-04-11 19:34 | 52.40493 | 9.47887 | 1152 ft | 210 kts | 270° |
| 2026-04-11 19:34 | 52.40767 | 9.45431 | 1890 ft | 237 kts | 275° |
| 2026-04-11 19:34 | 52.41056 | 9.42396 | 1670 ft | 294 kts | 267° |
| 2026-04-11 19:35 | 52.41062 | 9.38855 | 1341 ft | 331 kts | 265° |
| 2026-04-11 19:35 | 52.41033 | 9.34924 | 856 ft | 355 kts | 266° |